Malden, MA (02148)

10:34 PM EDT on August 04, 2015 (GMT -0400)
PAPA'S PLACE | | Change Station
CLOSE
Current Station
Personal Weather Station
Location: MALDEN, MA
Elevation: 52 ft
Nearby Weather Stations

Elev 52 ft 42.44 °N, 71.05 °W | Updated 3 minutes ago

Partly Cloudy
Partly Cloudy
70.1 °F
Feels Like 70.1 °F
N
0.0
Wind Variable Wind from WNW

Today
High -- | Low -- °F
--% Chance of Precip.
Yesterday
High -- | Low -- °F
Precip. -- in
5:39 AM 8:00 PM
Waning Gibbous, 72% visible
Pressure 29.88 in
Visibility 10.0 miles
Clouds Few 3400 ft
Scattered Clouds 7500 ft
Scattered Clouds 11000 ft
Dew Point 67 °F
Humidity 90%
Rainfall 0.15 in
Snow Depth Not available.
UV 0 out of 12
Pollen 5.70 out of 12
Air Quality Not available.
Flu Activity Not available.
METAR KBOS 050154Z 23008KT 10SM FEW034 SCT075 SCT110 22/18 A2987 RMK AO2 SLP116 OCNL LTGICCC E-SE T02220183

More Conditions Fewer Conditions

Pressure 29.88 in
Visibility 10.0 miles
Clouds Few 3400 ft
Scattered Clouds 7500 ft
Scattered Clouds 11000 ft
Dew Point 67 °F
Humidity 90%
Rainfall 0.15 in
Snow Depth Not available.
UV 0 out of 12
Pollen 5.70 out of 12
Air Quality Not available.
Flu Activity Not available.
METAR KBOS 050154Z 23008KT 10SM FEW034 SCT075 SCT110 22/18 A2987 RMK AO2 SLP116 OCNL LTGICCC E-SE T02220183

More Conditions Fewer Conditions

10-Day Weather Forecast

×

Almanac

Astronomy

Aug. 04, 2015 Rise Set
Actual Time
Civil Twilight
Nautical Twilight
Astronomical Twilight
Moon
Length of Visible Light
Length of Day
Tomorrow will be .
, % of the Moon is Illuminated

Today's Extremes

State Highs State Lows

Community

WunderPhotos

Upload Photos

1,844,087 photos uploaded!

WunderBlogs® & News

Nearby

Air Quality

  Air Quality AQ Index Pollutant
Not available.

Snow Depth

Station Depth Elevation

Earthquake Activity

City Distance Mag. Time & Date
Minimum magnitude displayed is 2.5.

Coastal Water Temperatures

Place Temperature

Stations

Nearby Weather Stations

Station Location Temp. Windchill Dew Point Humidity Wind Precip. Elev Updated Type